Latest Weather Observations for Innisfail Aero

IDQ60801

Issued at 6:22 am EST Monday 28 September 2020 (issued every 10 minutes, with the page automatically refreshed every 10 minutes)

About weather observations | Map of weather stations | Latest weather observations for QLD | Other Formats
Station Details ID: 032197 Name: INNISFAIL AERODROME Lat: -17.56 Lon: 146.01 Height: 11.84 m
Data from the previous 72 hours. | See also: Recent months at Innisfail Aero
Date/Time
EST
Temp
°C
App
Temp
°C
Dew
Point
°C
Rel
Hum
%
Delta-T
°C
Wind Press
QNH
hPa
Press
MSL
hPa
Rain since
9am
mm
Dir  Spd
km/h
Gust
km/h
Spd
kts
Gust
kts
28/06:00am 17.8 20.5 17.8 100 0.0 CALM 0 0 0 0 1016.8 1016.8 0.0
28/05:37am 18.3 21.2 18.3 100 0.0 CALM 0 0 0 0 1016.6 1016.6 0.0
28/05:30am 18.5 21.5 18.5 100 0.0 CALM 0 0 0 0 1016.5 1016.5 0.0
28/05:01am 18.4 21.4 18.4 100 0.0 CALM 0 0 0 0 1016.2 1016.2 0.0
28/05:00am 18.4 21.4 18.4 100 0.0 CALM 0 0 0 0 1016.2 1016.2 0.0
28/04:30am 18.3 21.2 18.3 100 0.0 CALM 0 0 0 0 1015.9 1015.9 0.0
28/04:00am 18.9 22.1 18.9 100 0.0 CALM 0 0 0 0 1015.7 1015.7 0.0
28/03:34am 18.8 22.0 18.8 100 0.0 CALM 0 0 0 0 1015.7 1015.7 0.0
28/03:30am 19.0 22.3 19.0 100 0.0 CALM 0 0 0 0 1015.7 1015.7 0.0
28/03:03am 19.1 22.4 19.1 100 0.0 CALM 0 0 0 0 1015.6 1015.6 0.0
28/03:00am 19.0 22.3 19.0 100 0.0 CALM 0 0 0 0 1015.6 1015.6 0.0
28/02:41am 18.9 22.1 18.9 100 0.0 CALM 0 0 0 0 1015.8 1015.8 0.0
28/02:39am 18.8 22.0 18.8 100 0.0 CALM 0 0 0 0 1015.8 1015.8 0.0
28/02:30am 18.5 21.5 18.5 100 0.0 CALM 0 0 0 0 1016.0 1016.0 0.0
28/02:20am 18.4 21.4 18.4 100 0.0 CALM 0 0 0 0 1016.0 1016.0 0.0
28/02:00am 18.7 21.4 18.7 100 0.0 W 2 7 1 4 1016.2 1016.2 0.0
28/01:30am 18.7 21.7 18.5 99 0.1 CALM 0 0 0 0 1016.5 1016.5 0.0
28/01:00am 19.8 21.7 19.8 100 0.0 SW 9 11 5 6 1017.0 1017.0 0.0
28/12:41am 19.4 22.8 19.4 100 0.0 CALM 0 0 0 0 1017.1 1017.1 0.0
28/12:30am 19.6 23.1 19.6 100 0.0 CALM 0 0 0 0 1017.2 1017.2 0.0
28/12:18am 18.9 22.0 18.7 99 0.1 CALM 0 0 0 0 1017.2 1017.2 0.0
28/12:00am 20.0 23.7 20.0 100 0.0 CALM 0 0 0 0 1017.5 1017.5 0.0
 
Date/Time
EST
Temp
°C
App
Temp
°C
Dew
Point
°C
Rel
Hum
%
Delta-T
°C
Wind Press
QNH
hPa
Press
MSL
hPa
Rain since
9am
mm
Dir  Spd
km/h
Gust
km/h
Spd
kts
Gust
kts
27/11:52pm 19.8 23.4 19.8 100 0.0 CALM 0 0 0 0 1017.6 1017.6 0.0
27/11:30pm 19.3 22.2 19.1 99 0.1 NNE 2 7 1 4 1017.6 1017.6 0.0
27/11:19pm 19.1 21.1 18.8 98 0.2 NNE 6 7 3 4 1017.7 1017.7 0.0
27/11:00pm 19.8 23.3 19.5 98 0.2 CALM 0 0 0 0 1017.7 1017.7 0.0
27/10:44pm 19.3 21.1 18.8 97 0.3 SW 7 9 4 5 1017.8 1017.8 0.0
27/10:30pm 19.6 22.9 19.1 97 0.3 CALM 0 9 0 5 1018.1 1018.1 0.0
27/10:24pm 20.1 23.6 19.6 97 0.3 CALM 0 0 0 0 1018.0 1018.0 0.0
27/10:00pm 20.3 23.7 19.3 94 0.6 CALM 0 0 0 0 1018.1 1018.1 0.0
27/09:30pm 21.3 23.5 20.5 95 0.5 WSW 9 11 5 6 1018.0 1018.0 0.0
27/09:00pm 21.0 23.4 20.0 94 0.6 SW 7 11 4 6 1017.9 1017.9 0.0
27/08:30pm 21.4 23.8 20.0 92 0.9 SW 7 9 4 5 1017.6 1017.6 0.0
27/08:00pm 21.8 24.5 20.3 91 1.0 SW 6 7 3 4 1017.5 1017.5 0.0
27/07:30pm 22.3 24.8 20.2 88 1.4 S 7 9 4 5 1017.2 1017.2 0.0
27/07:00pm 22.8 25.5 20.7 88 1.4 SE 7 9 4 5 1017.0 1017.0 0.0
27/06:30pm 23.1 25.2 20.2 84 1.9 SE 9 11 5 6 1016.7 1016.7 0.0
27/06:00pm 24.1 25.8 20.2 79 2.5 SE 11 17 6 9 1016.5 1016.5 0.0
27/05:30pm 25.2 26.4 20.7 76 2.9 ESE 15 19 8 10 1016.1 1016.1 0.0
27/05:00pm 25.6 26.3 20.4 73 3.4 E 17 22 9 12 1015.9 1015.9 0.0
27/04:30pm 26.6 27.5 20.9 71 3.8 ESE 17 24 9 13 1015.5 1015.5 0.0
27/04:00pm 26.9 27.6 21.2 71 3.8 ESE 19 24 10 13 1015.4 1015.4 0.0
27/03:30pm 27.3 28.1 20.6 67 4.4 E 17 24 9 13 1015.1 1015.1 0.0
27/03:00pm 27.5 27.9 19.8 63 5.0 SE 17 26 9 14 1015.0 1015.0 0.0
27/02:30pm 27.9 29.0 20.5 64 4.9 ESE 15 26 8 14 1015.3 1015.3 0.0
27/02:00pm 28.4 29.7 20.9 64 5.0 ESE 15 24 8 13 1015.6 1015.6 0.0
27/01:30pm 27.9 28.3 19.1 58 5.7 SE 15 20 8 11 1015.9 1015.9 0.0
27/01:00pm 28.3 29.1 19.8 60 5.5 ESE 15 28 8 15 1016.2 1016.2 0.0
27/12:30pm 27.9 28.9 19.4 60 5.5 ESE 13 22 7 12 1016.6 1016.6 0.0
27/12:00pm 27.8 28.6 19.1 59 5.6 ESE 13 24 7 13 1017.1 1017.1 0.0
27/11:30am 27.7 29.6 20.5 65 4.7 SE 11 19 6 10 1017.5 1017.5 0.0
27/11:00am 27.9 28.6 19.7 61 5.3 ESE 15 24 8 13 1017.9 1017.9 0.0
27/10:30am 26.9 28.8 19.8 65 4.6 SSE 9 19 5 10 1018.1 1018.1 0.0
27/10:00am 26.9 28.7 20.3 67 4.3 SSE 11 17 6 9 1018.2 1018.2 0.0
27/09:30am 26.1 28.5 20.9 73 3.4 SSE 9 15 5 8 1018.2 1018.2 0.0
27/09:00am 25.0 27.7 20.7 77 2.8 S 7 13 4 7 1018.2 1018.2 0.0
27/08:30am 23.3 26.3 20.8 86 1.6 SW 6 7 3 4 1018.0 1018.0 0.0
27/08:00am 21.6 24.6 20.8 95 0.5 W 6 9 3 5 1017.8 1017.8 0.0
27/07:30am 19.7 22.1 19.7 100 0.0 WSW 6 7 3 4 1017.4 1017.4 0.0
27/07:16am 19.5 21.7 19.5 100 0.0 WSW 7 9 4 5 1017.2 1017.2 0.0
27/07:11am 19.4 21.5 19.4 100 0.0 WSW 7 9 4 5 1017.1 1017.1 0.0
27/07:00am 19.1 21.3 19.1 100 0.0 WSW 6 6 3 3 1017.1 1017.1 0.0
27/06:30am 18.0 19.7 18.0 100 0.0 WSW 6 9 3 5 1016.5 1016.5 0.0
27/06:28am 17.9 19.5 17.9 100 0.0 WSW 6 7 3 4 1016.5 1016.5 0.0
27/06:26am 17.6 19.1 17.6 100 0.0 SW 6 7 3 4 1016.4 1016.4 0.0
27/06:15am 17.4 18.6 17.4 100 0.0 SSW 7 9 4 5 1016.3 1016.3 0.0
27/06:12am 17.4 18.6 17.4 100 0.0 SSW 7 9 4 5 1016.2 1016.2 0.0
27/06:00am 16.6 17.5 16.6 100 0.0 SSE 7 11 4 6 1016.1 1016.1 0.0
27/05:30am 17.5 20.1 17.5 100 0.0 CALM 0 0 0 0 1015.6 1015.6 0.0
27/05:24am 17.1 19.5 17.1 100 0.0 CALM 0 0 0 0 1015.6 1015.6 0.0
27/05:00am 17.6 20.2 17.6 100 0.0 CALM 0 0 0 0 1015.2 1015.2 0.0
27/04:57am 17.9 20.7 17.9 100 0.0 CALM 0 0 0 0 1015.1 1015.1 0.0
27/04:30am 17.8 20.5 17.8 100 0.0 CALM 0 0 0 0 1014.9 1014.9 0.0
27/04:00am 17.8 20.5 17.8 100 0.0 CALM 0 0 0 0 1014.7 1014.7 0.0
27/03:30am 18.6 21.7 18.6 100 0.0 CALM 0 0 0 0 1014.8 1014.8 0.0
27/03:00am 19.0 22.3 19.0 100 0.0 CALM 0 0 0 0 1014.8 1014.8 0.0
27/02:40am 19.1 22.4 19.1 100 0.0 CALM 0 0 0 0 1015.1 1015.1 0.0
27/02:30am 19.3 22.7 19.3 100 0.0 CALM 0 0 0 0 1015.2 1015.2 0.0
27/02:00am 19.3 22.7 19.3 100 0.0 CALM 0 0 0 0 1015.1 1015.1 0.0
27/01:30am 19.5 22.9 19.3 99 0.1 CALM 0 0 0 0 1015.3 1015.3 0.0
27/01:23am 19.8 23.3 19.6 99 0.1 CALM 0 0 0 0 1015.4 1015.4 0.0
27/01:00am 20.4 24.3 20.4 100 0.0 CALM 0 0 0 0 1015.7 1015.7 0.0
27/12:30am 20.6 23.8 20.6 100 0.0 SW 4 6 2 3 1016.0 1016.0 0.0
27/12:00am 20.3 24.2 20.3 100 0.0 CALM 0 2 0 1 1016.5 1016.5 0.0
 
Date/Time
EST
Temp
°C
App
Temp
°C
Dew
Point
°C
Rel
Hum
%
Delta-T
°C
Wind Press
QNH
hPa
Press
MSL
hPa
Rain since
9am
mm
Dir  Spd
km/h
Gust
km/h
Spd
kts
Gust
kts
26/11:30pm 20.6 23.5 20.6 100 0.0 NW 6 7 3 4 1016.5 1016.5 0.0
26/11:00pm 20.7 23.4 20.7 100 0.0 NW 7 9 4 5 1016.7 1016.7 0.0
26/10:30pm 20.3 22.7 20.1 99 0.1 NNW 7 9 4 5 1016.6 1016.6 0.0
26/10:00pm 20.4 24.2 20.2 99 0.1 CALM 0 0 0 0 1016.4 1016.4 0.0
26/09:30pm 20.3 24.0 20.0 98 0.2 CALM 0 0 0 0 1016.4 1016.4 0.0
26/09:00pm 20.8 23.2 20.0 95 0.5 SW 7 9 4 5 1016.2 1016.2 0.0
26/08:30pm 21.5 24.1 20.5 94 0.6 WSW 7 9 4 5 1015.9 1015.9 0.0
26/08:00pm 22.0 25.6 20.6 92 0.9 SSW 2 7 1 4 1015.8 1015.8 0.0
26/07:30pm 22.4 25.8 20.9 91 1.0 SSW 4 6 2 3 1015.5 1015.5 0.0
26/07:00pm 22.8 26.4 20.5 87 1.5 SSE 2 7 1 4 1015.1 1015.1 0.0
26/06:30pm 23.6 26.4 20.5 83 2.0 ENE 6 6 3 3 1014.9 1014.9 0.0
26/06:00pm 24.5 26.9 20.8 80 2.4 ENE 9 13 5 7 1014.5 1014.5 0.0
26/05:30pm 24.8 26.4 20.7 78 2.7 ENE 13 19 7 10 1014.0 1014.0 0.0
26/05:00pm 25.5 26.7 20.7 75 3.1 ENE 15 19 8 10 1013.7 1013.7 0.0
26/04:30pm 26.1 26.6 20.0 69 4.0 ENE 17 20 9 11 1013.4 1013.4 0.0
26/04:00pm 27.8 29.1 20.9 66 4.6 ENE 15 20 8 11 1013.2 1013.2 0.0
26/03:30pm 28.2 29.4 21.5 67 4.5 ENE 17 22 9 12 1013.1 1013.1 0.0
26/03:00pm 27.3 27.8 20.9 68 4.2 E 19 26 10 14 1013.4 1013.4 0.0
26/02:30pm 27.7 28.1 21.0 67 4.4 ENE 20 28 11 15 1013.5 1013.5 0.0
26/02:00pm 28.6 29.5 21.6 66 4.7 ENE 19 26 10 14 1013.6 1013.6 0.0
26/01:30pm 28.6 30.5 22.1 68 4.4 ENE 15 24 8 13 1014.0 1014.0 0.0
26/01:00pm 28.6 30.8 22.6 70 4.1 E 15 24 8 13 1014.4 1014.4 0.0
26/12:30pm 27.7 29.3 20.8 66 4.6 ESE 13 20 7 11 1015.1 1015.1 0.0
26/12:00pm 28.3 31.2 21.8 68 4.4 E 9 20 5 11 1015.6 1015.6 0.0
26/11:30am 28.0 30.4 20.8 65 4.8 ESE 9 15 5 8 1016.0 1016.0 0.0
26/11:00am 26.5 28.0 20.6 70 3.9 SE 13 20 7 11 1016.8 1016.8 0.0
26/10:30am 27.0 29.4 20.1 66 4.5 SSW 7 11 4 6 1016.9 1016.9 0.0
26/10:00am 26.3 29.2 20.6 71 3.7 ESE 6 11 3 6 1017.0 1017.0 0.0
26/09:30am 26.2 28.4 20.3 70 3.9 ESE 9 15 5 8 1017.0 1017.0 0.0
26/09:00am 25.4 29.5 21.5 79 2.6 ESE 2 7 1 4 1017.1 1017.1 0.0
26/08:30am 23.8 28.1 21.9 89 1.3 NNW 2 7 1 4 1016.9 1016.9 0.0
26/08:00am 21.3 24.9 20.5 95 0.5 WNW 2 7 1 4 1016.5 1016.5 0.0
26/07:30am 20.5 24.5 20.5 100 0.0 CALM 0 0 0 0 1016.1 1016.1 0.0
26/07:00am 19.5 23.0 19.5 100 0.0 CALM 0 0 0 0 1015.5 1015.5 0.0
26/06:30am 18.0 19.7 18.0 100 0.0 NW 6 7 3 4 1015.0 1015.0 0.0
26/06:08am 17.8 19.4 17.8 100 0.0 NNW 6 7 3 4 1014.5 1014.5 0.0
26/06:00am 18.1 19.8 18.1 100 0.0 NNW 6 7 3 4 1014.4 1014.4 0.0
26/05:30am 18.0 20.1 18.0 100 0.0 NNW 4 6 2 3 1013.9 1013.9 0.0
26/05:00am 17.5 19.7 17.5 100 0.0 NNW 2 6 1 3 1013.7 1013.7 0.0
26/04:55am 18.0 20.4 18.0 100 0.0 NNW 2 6 1 3 1013.5 1013.5 0.0
26/04:30am 18.1 20.6 18.1 100 0.0 NW 2 6 1 3 1013.4 1013.4 0.0
26/04:19am 18.2 20.0 18.2 100 0.0 NW 6 7 3 4 1013.2 1013.2 0.0
26/04:17am 18.2 20.3 18.2 100 0.0 NW 4 7 2 4 1013.2 1013.2 0.0
26/04:02am 18.1 21.0 18.1 100 0.0 CALM 0 0 0 0 1013.1 1013.1 0.0
26/04:00am 18.0 20.8 18.0 100 0.0 CALM 0 0 0 0 1013.1 1013.1 0.0
26/03:52am 18.1 21.0 18.1 100 0.0 CALM 0 0 0 0 1013.2 1013.2 0.0
26/03:30am 18.6 21.7 18.6 100 0.0 CALM 0 0 0 0 1013.2 1013.2 0.0
26/03:25am 18.5 21.5 18.5 100 0.0 CALM 0 0 0 0 1013.1 1013.1 0.0
26/03:00am 18.4 21.4 18.4 100 0.0 CALM 0 0 0 0 1013.2 1013.2 0.0
26/02:30am 18.1 21.0 18.1 100 0.0 CALM 0 0 0 0 1013.2 1013.2 0.0
26/02:00am 17.9 20.7 17.9 100 0.0 CALM 0 0 0 0 1013.5 1013.5 0.0
26/01:30am 18.7 21.8 18.7 100 0.0 CALM 0 0 0 0 1013.7 1013.7 0.0
26/01:00am 18.8 22.0 18.8 100 0.0 CALM 0 0 0 0 1014.0 1014.0 0.0
26/12:30am 18.9 22.1 18.9 100 0.0 CALM 0 0 0 0 1014.0 1014.0 0.0
26/12:20am 19.0 22.3 19.0 100 0.0 CALM 0 0 0 0 1014.1 1014.1 0.0
26/12:08am 19.4 22.8 19.4 100 0.0 CALM 0 0 0 0 1014.3 1014.3 0.0
26/12:00am 19.6 23.1 19.6 100 0.0 CALM 0 0 0 0 1014.3 1014.3 0.0
 
Date/Time
EST
Temp
°C
App
Temp
°C
Dew
Point
°C
Rel
Hum
%
Delta-T
°C
Wind Press
QNH
hPa
Press
MSL
hPa
Rain since
9am
mm
Dir  Spd
km/h
Gust
km/h
Spd
kts
Gust
kts
25/11:39pm 19.6 23.1 19.6 100 0.0 CALM 0 0 0 0 1014.3 1014.3 0.0
25/11:30pm 19.8 23.4 19.8 100 0.0 CALM 0 0 0 0 1014.3 1014.3 0.0
25/11:00pm 19.9 23.5 19.7 99 0.1 CALM 0 0 0 0 1014.6 1014.6 0.0
25/10:30pm 19.9 23.4 19.6 98 0.2 CALM 0 0 0 0 1014.4 1014.4 0.0
25/10:00pm 19.7 23.0 19.2 97 0.3 CALM 0 0 0 0 1014.4 1014.4 0.0
25/09:30pm 20.4 23.6 19.7 96 0.4 WSW 2 7 1 4 1014.4 1014.4 0.0
25/09:00pm 20.4 22.5 19.4 94 0.6 WSW 7 7 4 4 1014.2 1014.2 0.0
25/08:30pm 20.9 23.4 19.9 94 0.6 WNW 6 7 3 4 1014.0 1014.0 0.0
25/08:00pm 21.3 23.8 19.8 91 1.0 W 6 7 3 4 1013.8 1013.8 0.0
25/07:30pm 22.3 26.1 20.2 88 1.4 CALM 0 0 0 0 1013.6 1013.6 0.0
25/07:00pm 22.5 25.8 19.9 85 1.7 NE 2 6 1 3 1013.3 1013.3 0.0
25/06:30pm 22.9 24.9 19.9 83 1.9 ENE 9 11 5 6 1013.0 1013.0 0.0
25/06:00pm 23.9 25.5 20.0 79 2.5 NE 11 15 6 8 1012.9 1012.9 0.0
25/05:30pm 25.0 26.0 20.3 75 3.1 NE 15 20 8 11 1012.5 1012.5 0.0
25/05:00pm 25.8 26.5 20.4 72 3.5 NE 17 24 9 13 1012.2 1012.2 0.0
25/04:30pm 26.3 26.2 19.9 68 4.2 NE 20 26 11 14 1012.0 1012.0 0.0
25/04:00pm 26.7 26.3 19.3 64 4.8 NE 20 28 11 15 1011.8 1011.8 0.0
25/03:30pm 27.2 27.0 19.8 64 4.8 NE 20 28 11 15 1011.8 1011.8 0.0
25/03:00pm 27.5 26.7 19.3 61 5.3 NE 22 30 12 16 1011.6 1011.6 0.0
25/02:30pm 27.9 27.8 19.9 61 5.2 NE 20 26 11 14 1011.9 1011.9 0.0
25/02:00pm 27.9 27.7 19.7 61 5.3 ENE 20 28 11 15 1012.2 1012.2 0.0
25/01:30pm 28.3 28.2 18.7 56 6.2 NE 17 26 9 14 1012.5 1012.5 0.0
25/01:00pm 27.9 27.9 18.9 58 5.8 NE 17 24 9 13 1013.1 1013.1 0.0
25/12:30pm 27.6 28.0 18.9 59 5.6 ENE 15 24 8 13 1013.4 1013.4 0.0
25/12:00pm 28.0 28.9 20.0 61 5.2 NE 15 22 8 12 1013.7 1013.7 0.0
25/11:30am 27.8 28.1 18.8 58 5.8 NE 15 22 8 12 1014.1 1014.1 0.0
25/11:00am 27.5 28.7 19.0 59 5.5 E 11 17 6 9 1014.5 1014.5 0.0
25/10:30am 27.4 29.9 20.2 65 4.7 N 7 13 4 7 1014.9 1014.9 0.0
25/10:00am 26.6 27.6 17.7 58 5.6 ENE 9 13 5 7 1015.1 1015.1 0.0
25/09:30am 26.0 28.9 19.9 69 4.0 SW 4 7 2 4 1015.1 1015.1 0.0
25/09:00am 25.4 29.0 19.8 71 3.6 CALM 0 0 0 0 1015.1 1015.1 0.0
25/08:30am 24.1 28.4 21.2 84 1.9 CALM 0 0 0 0 1014.9 1014.9 0.0
25/08:00am 21.9 25.8 20.4 91 1.0 CALM 0 0 0 0 1014.7 1014.7 0.0
25/07:42am 20.8 24.8 20.5 98 0.2 CALM 0 0 0 0 1014.7 1014.7 0.0
25/07:30am 20.5 23.3 20.5 100 0.0 NW 6 9 3 5 1014.6 1014.6 0.0
25/07:24am 20.3 22.5 20.3 100 0.0 NW 9 11 5 6 1014.5 1014.5 0.0
25/07:00am 19.5 21.3 19.5 100 0.0 NNW 9 11 5 6 1014.1 1014.1 0.0
25/06:50am 18.9 20.8 18.9 100 0.0 NNW 7 9 4 5 1014.1 1014.1 0.0
25/06:30am 17.3 19.8 17.3 100 0.0 CALM 0 4 0 2 1013.9 1013.9 0.0

Other formats

Comma delimited format used in spreadsheet applications
http://www.bom.gov.au/fwo/IDQ60801/IDQ60801.94280.axf

JavaScript Object Notation format (JSON) in row-major order
http://www.bom.gov.au/fwo/IDQ60801/IDQ60801.94280.json

Data quality

Most of these data are generated automatically and are frequently updated. Quality checks on data are not normally performed. It is possible for incorrect values to appear. Refer to information at About Latest Weather Observations and please check the disclaimer before using these data.